Terminal Aerodrome Forecast
Issued by NWS Upton, NY

Home | Current Version | Previous Version | Text Only | Print | Product List | Glossary On
Versions: 1 2 3 4 5 6 7 8 9 10 11 12 13 14 15 16 17 18 19 20 21 22 23 24 25 26 27 28 29
543
FTUS41 KOKX 161935 AAA
TAFEWR
TAF AMD
KEWR 161935Z 1620/1724 13004KT P6SM SCT009 BKN015 BKN030
      TEMPO 1703/1706 6SM -RA
     FM170600 VRB04KT 5SM -RA BR OVC009
     FM170800 07006KT 2SM -RASN OVC008
     FM171200 33009KT 1 1/2SM -SN BR VV008
     FM171500 31012KT 5SM BR BKN015 BKN120
     FM171700 30014G22KT P6SM SCT025 BKN120=

USA.gov is the U.S. government's official web portal to all federal, state and local government web resources and services.